This is the latest recevied weather packets stored in our database for station/object IU1DOF-3. If no packets are shown the sender has not sent any weather packets the latest 10 day(s).
| Time | Temp. | Humidity | Pressure | Rain* | Wind** | Luminosity | Snow |
|---|---|---|---|---|---|---|---|
| 1778063860 | 17.22° C | 69% | 1005.7 hPa | 0 mm | - | - | - |
| 1778063244 | 16.11° C | 69% | 1005.7 hPa | 0 mm | - | - | - |
| 1778062620 | 16.67° C | 67% | 1005.6 hPa | 0 mm | - | - | - |
| 1778062000 | 16.11° C | 68% | 1005.8 hPa | 0 mm | - | - | - |
| 1778061387 | 16.11° C | 66% | 1005.7 hPa | 0 mm | - | - | - |
| 1778060763 | 16.11° C | 70% | 1005.6 hPa | 0 mm | - | - | - |
| 1778060139 | 15.56° C | 68% | 1005.9 hPa | 0 mm | - | - | - |
| 1778059515 | 15° C | 69% | 1006 hPa | 0 mm | - | - | - |
| 1778058892 | 15° C | 71% | 1005.8 hPa | 0 mm | - | - | - |
| 1778058281 | 15° C | 72% | 1005.7 hPa | 0 mm | - | - | - |
| 1778057662 | 13.89° C | 74% | 1005.9 hPa | 0 mm | - | - | - |
| 1778057035 | 13.33° C | 77% | 1006 hPa | 0 mm | - | - | - |
| 1778056420 | 13.33° C | 78% | 1005.9 hPa | 0 mm | - | - | - |
| 1778055803 | 13.33° C | 76% | 1005.8 hPa | 0 mm | - | - | - |
| 1778055180 | 12.22° C | 78% | 1005.9 hPa | 0 mm | - | - | - |
| 1778054561 | 11.67° C | 80% | 1006 hPa | 0 mm | - | - | - |
| 1778053948 | 12.22° C | 79% | 1006.1 hPa | 0 mm | - | - | - |
| 1778053323 | 11.11° C | 81% | 1006.3 hPa | 0 mm | - | - | - |
| 1778052699 | 11.11° C | 82% | 1006.3 hPa | 0 mm | - | - | - |
| 1778052076 | 11.11° C | 83% | 1006.6 hPa | 0 mm | - | - | - |
| 1778051451 | 10.56° C | 84% | 1006.6 hPa | 0 mm | - | - | - |
| 1778050841 | 11.11° C | 82% | 1006.6 hPa | 0 mm | - | - | - |
| 1778050221 | 10° C | 87% | 1006.4 hPa | 0 mm | - | - | - |
| 1778049595 | 10° C | 89% | 1006.6 hPa | 0 mm | - | - | - |
| 1778048980 | 8.89° C | 94% | 1006.9 hPa | 0 mm | - | - | - |
* Rain latest hour (hover to see other rain measurements)
** Current wind speed in m/s (hover to see current wind gust speed)